HEFTY55 KSUU-KVBG
Flight info
| Callsign | HEFTY55 |
|---|---|
| Flight time | N/A |
| Altitude | 21000 |
| Route | REJOY1 AVE WARRN |
| Aircraft | C5M/H-VGDW/C |
Departure
| Time | 2026-04-25 04:45 |
|---|---|
| Airport | Travis Air Force Base (KSUU) |
Arrival
| Time | N/A |
|---|---|
| Airport | Vandenberg Space Force Base (KVBG) |
| Time | Latitude | Longitude | Altitude | Speed | Heading |
|---|---|---|---|---|---|
| 2026-04-25 04:29 | 38.26029 | -121.94063 | 79 ft | 0 kts | 271° |
| 2026-04-25 04:35 | 38.26031 | -121.94084 | 79 ft | 5 kts | 278° |
| 2026-04-25 04:35 | 38.26032 | -121.94089 | 79 ft | 0 kts | 283° |
| 2026-04-25 04:35 | 38.26051 | -121.94111 | 79 ft | 8 kts | 334° |
| 2026-04-25 04:35 | 38.26093 | -121.94114 | 79 ft | 3 kts | 0° |
| 2026-04-25 04:36 | 38.26102 | -121.94114 | 79 ft | 5 kts | 359° |
| 2026-04-25 04:36 | 38.26133 | -121.94114 | 79 ft | 2 kts | 2° |
| 2026-04-25 04:36 | 38.26142 | -121.94113 | 79 ft | 2 kts | 3° |
| 2026-04-25 04:36 | 38.26179 | -121.94109 | 79 ft | 12 kts | 5° |
| 2026-04-25 04:37 | 38.26235 | -121.94065 | 79 ft | 11 kts | 65° |
| 2026-04-25 04:37 | 38.26243 | -121.93944 | 79 ft | 17 kts | 90° |
| 2026-04-25 04:37 | 38.26245 | -121.93766 | 79 ft | 23 kts | 90° |
| 2026-04-25 04:37 | 38.26245 | -121.93571 | 79 ft | 20 kts | 90° |
| 2026-04-25 04:38 | 38.26264 | -121.93427 | 79 ft | 14 kts | 63° |
| 2026-04-25 04:38 | 38.26319 | -121.93343 | 79 ft | 10 kts | 47° |
| 2026-04-25 04:38 | 38.26360 | -121.93285 | 79 ft | 8 kts | 52° |
| 2026-04-25 04:38 | 38.26384 | -121.93210 | 79 ft | 11 kts | 82° |
| 2026-04-25 04:39 | 38.26407 | -121.93110 | 79 ft | 13 kts | 56° |
| 2026-04-25 04:39 | 38.26473 | -121.93008 | 79 ft | 16 kts | 47° |
| 2026-04-25 04:39 | 38.26556 | -121.92891 | 79 ft | 19 kts | 48° |
| 2026-04-25 04:39 | 38.26658 | -121.92760 | 79 ft | 22 kts | 45° |
| 2026-04-25 04:40 | 38.26749 | -121.92634 | 79 ft | 15 kts | 48° |
| 2026-04-25 04:40 | 38.26793 | -121.92570 | 79 ft | 5 kts | 51° |
| 2026-04-25 04:40 | 38.26810 | -121.92541 | 79 ft | 8 kts | 57° |
| 2026-04-25 04:40 | 38.26798 | -121.92474 | 79 ft | 14 kts | 126° |
| 2026-04-25 04:41 | 38.26707 | -121.92367 | 79 ft | 17 kts | 137° |
| 2026-04-25 04:41 | 38.26637 | -121.92284 | 79 ft | 11 kts | 135° |
| 2026-04-25 04:41 | 38.26594 | -121.92233 | 79 ft | 7 kts | 137° |
| 2026-04-25 04:41 | 38.26537 | -121.92159 | 79 ft | 12 kts | 120° |
| 2026-04-25 04:42 | 38.26589 | -121.92025 | 79 ft | 27 kts | 48° |
| 2026-04-25 04:42 | 38.26764 | -121.91789 | 79 ft | 46 kts | 47° |
| 2026-04-25 04:42 | 38.27021 | -121.91430 | 79 ft | 63 kts | 48° |
| 2026-04-25 04:42 | 38.27355 | -121.90976 | 79 ft | 78 kts | 48° |
| 2026-04-25 04:43 | 38.27699 | -121.90491 | 79 ft | 67 kts | 46° |
| 2026-04-25 04:43 | 38.27980 | -121.90108 | 79 ft | 52 kts | 51° |
| 2026-04-25 04:43 | 38.28115 | -121.89865 | 79 ft | 16 kts | 62° |
| 2026-04-25 04:43 | 38.28140 | -121.89843 | 79 ft | 1 kts | 9° |
| 2026-04-25 04:44 | 38.28156 | -121.89849 | 79 ft | 3 kts | 334° |
| 2026-04-25 04:44 | 38.28166 | -121.89875 | 79 ft | 4 kts | 278° |
| 2026-04-25 04:44 | 38.28148 | -121.89904 | 79 ft | 7 kts | 209° |
| 2026-04-25 04:44 | 38.28046 | -121.89998 | 79 ft | 30 kts | 228° |
| 2026-04-25 04:45 | 38.27788 | -121.90356 | 79 ft | 86 kts | 227° |
| 2026-04-25 04:45 | 38.27241 | -121.91123 | 79 ft | 145 kts | 226° |
| 2026-04-25 04:45 | 38.26454 | -121.92216 | 331 ft | 188 kts | 227° |
| 2026-04-25 04:45 | 38.25541 | -121.93554 | 797 ft | 212 kts | 228° |
| 2026-04-25 04:46 | 38.24593 | -121.94939 | 951 ft | 195 kts | 228° |
| 2026-04-25 04:46 | 38.23729 | -121.96148 | 1163 ft | 180 kts | 227° |
| 2026-04-25 04:46 | 38.22748 | -121.97222 | 1327 ft | 201 kts | 218° |
| 2026-04-25 04:46 | 38.21328 | -121.97617 | 1492 ft | 215 kts | 189° |
| 2026-04-25 04:47 | 38.19986 | -121.96989 | 1812 ft | 205 kts | 158° |
| 2026-04-25 04:47 | 38.19107 | -121.95545 | 2282 ft | 217 kts | 130° |
| 2026-04-25 04:47 | 38.18768 | -121.93541 | 2721 ft | 245 kts | 103° |
| 2026-04-25 04:47 | 38.18617 | -121.91325 | 3341 ft | 263 kts | 99° |
| 2026-04-25 04:48 | 38.18236 | -121.89028 | 3771 ft | 268 kts | 104° |
| 2026-04-25 04:48 | 38.17964 | -121.86730 | 4183 ft | 259 kts | 100° |
| 2026-04-25 04:48 | 38.17671 | -121.84453 | 4617 ft | 265 kts | 101° |
| 2026-04-25 04:48 | 38.16951 | -121.82242 | 4860 ft | 276 kts | 120° |
| 2026-04-25 04:49 | 38.15602 | -121.80686 | 5194 ft | 258 kts | 144° |
| 2026-04-25 04:49 | 38.14046 | -121.79754 | 5814 ft | 252 kts | 155° |
| 2026-04-25 04:49 | 38.12450 | -121.78530 | 6239 ft | 277 kts | 149° |
| 2026-04-25 04:49 | 38.10779 | -121.77265 | 6591 ft | 275 kts | 150° |
| 2026-04-25 04:50 | 38.09198 | -121.76094 | 6934 ft | 254 kts | 150° |
| 2026-04-25 04:50 | 38.07673 | -121.74951 | 7300 ft | 261 kts | 150° |
| 2026-04-25 04:50 | 38.06044 | -121.73733 | 7664 ft | 283 kts | 150° |
| 2026-04-25 04:50 | 38.04338 | -121.72467 | 8031 ft | 278 kts | 150° |
| 2026-04-25 04:51 | 38.02730 | -121.71267 | 8374 ft | 261 kts | 150° |
| 2026-04-25 04:51 | 38.01161 | -121.70093 | 8742 ft | 268 kts | 150° |
| 2026-04-25 04:51 | 37.99484 | -121.68849 | 9108 ft | 289 kts | 150° |
| 2026-04-25 04:51 | 37.97746 | -121.67560 | 9474 ft | 285 kts | 150° |
| 2026-04-25 04:52 | 37.96093 | -121.66333 | 9820 ft | 269 kts | 150° |
| 2026-04-25 04:52 | 37.94459 | -121.65127 | 10187 ft | 278 kts | 150° |
| 2026-04-25 04:52 | 37.92732 | -121.63862 | 10551 ft | 296 kts | 150° |
| 2026-04-25 04:52 | 37.90908 | -121.62498 | 10919 ft | 312 kts | 149° |
| 2026-04-25 04:53 | 37.89008 | -121.61050 | 11270 ft | 326 kts | 149° |
| 2026-04-25 04:53 | 37.87028 | -121.59551 | 11658 ft | 336 kts | 149° |
| 2026-04-25 04:53 | 37.85694 | -121.58528 | 11924 ft | 342 kts | 149° |
| 2026-04-25 04:53 | 37.83623 | -121.56960 | 12328 ft | 351 kts | 149° |
| 2026-04-25 04:54 | 37.81513 | -121.55346 | 12732 ft | 358 kts | 149° |
| 2026-04-25 04:54 | 37.79367 | -121.53729 | 13128 ft | 357 kts | 149° |
| 2026-04-25 04:54 | 37.77292 | -121.51998 | 13447 ft | 352 kts | 143° |
| 2026-04-25 04:54 | 37.75810 | -121.49538 | 13780 ft | 353 kts | 123° |
| 2026-04-25 04:55 | 37.74884 | -121.46663 | 14245 ft | 356 kts | 111° |
| 2026-04-25 04:55 | 37.73904 | -121.43754 | 14664 ft | 363 kts | 113° |
| 2026-04-25 04:55 | 37.72904 | -121.40795 | 15068 ft | 370 kts | 112° |
| 2026-04-25 04:55 | 37.71882 | -121.37795 | 15470 ft | 371 kts | 113° |
| 2026-04-25 04:56 | 37.70877 | -121.34824 | 15866 ft | 365 kts | 113° |
| 2026-04-25 04:56 | 37.69880 | -121.31881 | 16269 ft | 365 kts | 113° |
| 2026-04-25 04:56 | 37.68876 | -121.28919 | 16709 ft | 368 kts | 112° |
| 2026-04-25 04:56 | 37.67558 | -121.26138 | 17051 ft | 373 kts | 126° |
| 2026-04-25 04:57 | 37.65557 | -121.24079 | 17455 ft | 373 kts | 145° |
| 2026-04-25 04:57 | 37.63230 | -121.22657 | 17985 ft | 372 kts | 154° |
| 2026-04-25 04:57 | 37.60934 | -121.21182 | 18445 ft | 373 kts | 153° |
| 2026-04-25 04:57 | 37.58606 | -121.19670 | 18749 ft | 380 kts | 153° |
| 2026-04-25 04:58 | 37.56237 | -121.18102 | 18997 ft | 388 kts | 153° |
| 2026-04-25 04:58 | 37.53820 | -121.16498 | 19249 ft | 395 kts | 153° |
| 2026-04-25 04:58 | 37.51384 | -121.14867 | 19499 ft | 400 kts | 153° |
| 2026-04-25 04:58 | 37.48913 | -121.13266 | 19745 ft | 397 kts | 154° |
| 2026-04-25 04:59 | 37.46484 | -121.11683 | 19992 ft | 391 kts | 154° |
| 2026-04-25 04:59 | 37.44067 | -121.10092 | 20246 ft | 394 kts | 154° |
| 2026-04-25 04:59 | 37.41625 | -121.08472 | 20498 ft | 400 kts | 154° |
| 2026-04-25 04:59 | 37.39147 | -121.06825 | 20750 ft | 406 kts | 154° |
| 2026-04-25 05:00 | 37.36627 | -121.05182 | 20981 ft | 411 kts | 155° |
| 2026-04-25 05:00 | 37.34045 | -121.03534 | 21025 ft | 420 kts | 155° |
| 2026-04-25 05:00 | 37.31461 | -121.01845 | 21031 ft | 415 kts | 155° |
| 2026-04-25 05:00 | 37.28943 | -121.00215 | 21033 ft | 401 kts | 155° |
| 2026-04-25 05:01 | 37.26480 | -120.98595 | 21045 ft | 399 kts | 155° |
| 2026-04-25 05:01 | 37.23994 | -120.96968 | 21050 ft | 409 kts | 155° |
| 2026-04-25 05:01 | 37.21436 | -120.95290 | 21050 ft | 418 kts | 155° |
| 2026-04-25 05:01 | 37.18847 | -120.93601 | 21039 ft | 416 kts | 155° |
| 2026-04-25 05:02 | 37.16327 | -120.91948 | 21035 ft | 404 kts | 155° |
| 2026-04-25 05:02 | 37.13854 | -120.90318 | 21039 ft | 400 kts | 155° |
| 2026-04-25 05:02 | 37.11367 | -120.88680 | 21039 ft | 409 kts | 155° |
| 2026-04-25 05:02 | 37.08820 | -120.87001 | 21039 ft | 418 kts | 155° |
| 2026-04-25 05:03 | 37.06238 | -120.85301 | 21037 ft | 417 kts | 155° |
| 2026-04-25 05:03 | 37.03701 | -120.83626 | 21036 ft | 406 kts | 155° |
| 2026-04-25 05:03 | 37.01201 | -120.82042 | 21039 ft | 402 kts | 156° |
| 2026-04-25 05:03 | 36.98699 | -120.80433 | 21041 ft | 409 kts | 155° |
| 2026-04-25 05:04 | 36.96135 | -120.78805 | 21044 ft | 417 kts | 156° |
| 2026-04-25 05:04 | 36.93546 | -120.77139 | 21042 ft | 417 kts | 155° |
| 2026-04-25 05:04 | 36.90991 | -120.75505 | 21042 ft | 408 kts | 156° |
| 2026-04-25 05:04 | 36.88488 | -120.73882 | 21055 ft | 404 kts | 155° |
| 2026-04-25 05:05 | 36.85978 | -120.72264 | 21061 ft | 410 kts | 156° |
| 2026-04-25 05:05 | 36.83420 | -120.70606 | 21061 ft | 418 kts | 155° |
| 2026-04-25 05:05 | 36.80827 | -120.68929 | 21060 ft | 419 kts | 156° |
| 2026-04-25 05:05 | 36.78267 | -120.67267 | 21059 ft | 410 kts | 155° |
| 2026-04-25 05:06 | 36.75758 | -120.65630 | 21053 ft | 406 kts | 156° |
| 2026-04-25 05:06 | 36.73219 | -120.64052 | 21051 ft | 412 kts | 157° |
| 2026-04-25 05:06 | 36.70638 | -120.62425 | 21048 ft | 419 kts | 156° |
| 2026-04-25 05:06 | 36.68021 | -120.60793 | 21043 ft | 419 kts | 157° |
| 2026-04-25 05:07 | 36.65447 | -120.59162 | 21036 ft | 411 kts | 156° |
| 2026-04-25 05:07 | 36.62906 | -120.57561 | 21036 ft | 408 kts | 157° |
| 2026-04-25 05:07 | 36.60364 | -120.55941 | 21035 ft | 414 kts | 156° |
| 2026-04-25 05:07 | 36.57781 | -120.54307 | 21031 ft | 420 kts | 157° |
| 2026-04-25 05:08 | 36.55170 | -120.52644 | 21028 ft | 420 kts | 156° |
| 2026-04-25 05:08 | 36.52588 | -120.51003 | 21025 ft | 413 kts | 157° |
| 2026-04-25 05:08 | 36.50079 | -120.49396 | 21020 ft | 411 kts | 156° |
| 2026-04-25 05:08 | 36.47472 | -120.47727 | 20788 ft | 422 kts | 156° |
| 2026-04-25 05:09 | 36.44886 | -120.46072 | 20511 ft | 423 kts | 156° |
| 2026-04-25 05:09 | 36.42316 | -120.44435 | 20211 ft | 406 kts | 156° |
| 2026-04-25 05:09 | 36.39852 | -120.42864 | 20091 ft | 397 kts | 156° |
| 2026-04-25 05:09 | 36.37351 | -120.41272 | 19824 ft | 410 kts | 156° |
| 2026-04-25 05:10 | 36.34769 | -120.39634 | 19543 ft | 422 kts | 156° |
| 2026-04-25 05:10 | 36.32194 | -120.38012 | 19238 ft | 405 kts | 156° |
| 2026-04-25 05:10 | 36.29738 | -120.36473 | 18948 ft | 390 kts | 156° |
| 2026-04-25 05:10 | 36.27309 | -120.34946 | 18666 ft | 396 kts | 156° |
| 2026-04-25 05:11 | 36.24807 | -120.33392 | 18499 ft | 407 kts | 156° |
| 2026-04-25 05:11 | 36.22262 | -120.31816 | 18242 ft | 407 kts | 156° |
| 2026-04-25 05:11 | 36.19780 | -120.30285 | 17954 ft | 390 kts | 156° |
| 2026-04-25 05:12 | 36.14909 | -120.27279 | 17382 ft | 401 kts | 156° |
| 2026-04-25 05:12 | 36.12406 | -120.25743 | 17091 ft | 397 kts | 156° |
| 2026-04-25 05:12 | 36.10009 | -120.24262 | 16931 ft | 377 kts | 156° |
| 2026-04-25 05:12 | 36.07638 | -120.22869 | 16665 ft | 381 kts | 158° |
| 2026-04-25 05:13 | 36.05198 | -120.21427 | 16386 ft | 395 kts | 157° |
| 2026-04-25 05:13 | 36.02728 | -120.19986 | 16092 ft | 384 kts | 158° |
| 2026-04-25 05:13 | 36.00381 | -120.18598 | 15850 ft | 364 kts | 157° |
| 2026-04-25 05:13 | 35.98080 | -120.17229 | 15673 ft | 366 kts | 158° |
| 2026-04-25 05:14 | 35.95724 | -120.15843 | 15404 ft | 385 kts | 157° |
| 2026-04-25 05:14 | 35.93296 | -120.14417 | 15130 ft | 381 kts | 157° |
| 2026-04-25 05:14 | 35.91000 | -120.13065 | 15068 ft | 353 kts | 157° |
| 2026-04-25 05:15 | 35.86582 | -120.10458 | 15063 ft | 368 kts | 157° |
| 2026-04-25 05:15 | 35.84213 | -120.09079 | 15060 ft | 384 kts | 158° |
| 2026-04-25 05:15 | 35.81822 | -120.07681 | 15057 ft | 371 kts | 157° |
| 2026-04-25 05:15 | 35.79566 | -120.06353 | 15060 ft | 353 kts | 157° |
| 2026-04-25 05:16 | 35.77338 | -120.05040 | 15065 ft | 361 kts | 157° |
| 2026-04-25 05:16 | 35.75015 | -120.03685 | 15062 ft | 379 kts | 157° |
| 2026-04-25 05:16 | 35.72483 | -120.02840 | 15034 ft | 371 kts | 173° |
| 2026-04-25 05:16 | 35.69985 | -120.02773 | 15078 ft | 349 kts | 182° |
| 2026-04-25 05:17 | 35.67583 | -120.03045 | 15074 ft | 350 kts | 189° |
| 2026-04-25 05:17 | 35.65142 | -120.03653 | 15086 ft | 365 kts | 195° |
| 2026-04-25 05:17 | 35.62697 | -120.04596 | 15086 ft | 367 kts | 201° |
| 2026-04-25 05:17 | 35.60411 | -120.05784 | 15020 ft | 346 kts | 206° |
| 2026-04-25 05:18 | 35.58310 | -120.07126 | 15009 ft | 339 kts | 211° |
| 2026-04-25 05:18 | 35.56247 | -120.08629 | 15021 ft | 353 kts | 213° |
| 2026-04-25 05:18 | 35.54138 | -120.10313 | 15019 ft | 365 kts | 216° |
| 2026-04-25 05:18 | 35.52091 | -120.12063 | 15018 ft | 347 kts | 217° |
| 2026-04-25 05:19 | 35.50198 | -120.13774 | 15023 ft | 333 kts | 219° |
| 2026-04-25 05:19 | 35.48338 | -120.15519 | 15027 ft | 344 kts | 219° |
| 2026-04-25 05:19 | 35.46410 | -120.17391 | 15026 ft | 362 kts | 221° |
| 2026-04-25 05:19 | 35.44428 | -120.19300 | 15024 ft | 357 kts | 220° |
| 2026-04-25 05:20 | 35.42573 | -120.21165 | 15026 ft | 335 kts | 221° |
| 2026-04-25 05:20 | 35.40766 | -120.22962 | 14969 ft | 341 kts | 221° |
| 2026-04-25 05:20 | 35.38857 | -120.24884 | 14513 ft | 365 kts | 221° |
| 2026-04-25 05:20 | 35.36944 | -120.26796 | 14085 ft | 345 kts | 221° |
| 2026-04-25 05:21 | 35.35127 | -120.28657 | 13661 ft | 338 kts | 221° |
| 2026-04-25 05:21 | 35.33331 | -120.30577 | 13266 ft | 349 kts | 223° |
| 2026-04-25 05:21 | 35.31466 | -120.32506 | 12863 ft | 348 kts | 221° |
| 2026-04-25 05:21 | 35.29657 | -120.34364 | 12459 ft | 331 kts | 221° |
| 2026-04-25 05:22 | 35.27900 | -120.36185 | 12063 ft | 336 kts | 221° |
| 2026-04-25 05:22 | 35.26082 | -120.38073 | 11692 ft | 348 kts | 221° |
| 2026-04-25 05:22 | 35.24273 | -120.39974 | 11313 ft | 335 kts | 221° |
| 2026-04-25 05:22 | 35.22543 | -120.41747 | 10928 ft | 322 kts | 221° |
| 2026-04-25 05:23 | 35.20935 | -120.43420 | 10553 ft | 285 kts | 221° |
| 2026-04-25 05:23 | 35.19434 | -120.44957 | 10188 ft | 283 kts | 221° |
| 2026-04-25 05:23 | 35.17882 | -120.46553 | 9836 ft | 292 kts | 221° |
| 2026-04-25 05:23 | 35.16338 | -120.48141 | 9481 ft | 285 kts | 221° |
| 2026-04-25 05:24 | 35.14854 | -120.49661 | 9134 ft | 280 kts | 221° |
| 2026-04-25 05:24 | 35.13349 | -120.51194 | 8787 ft | 285 kts | 221° |
| 2026-04-25 05:24 | 35.11819 | -120.52758 | 8436 ft | 285 kts | 221° |
| 2026-04-25 05:24 | 35.10323 | -120.54278 | 8080 ft | 273 kts | 221° |
| 2026-04-25 05:25 | 35.08879 | -120.55739 | 7749 ft | 268 kts | 221° |
| 2026-04-25 05:25 | 35.07442 | -120.57182 | 7425 ft | 267 kts | 221° |
| 2026-04-25 05:25 | 35.06012 | -120.58611 | 7095 ft | 263 kts | 221° |
| 2026-04-25 05:25 | 35.04623 | -120.60020 | 6773 ft | 257 kts | 222° |
| 2026-04-25 05:26 | 35.03285 | -120.61408 | 6459 ft | 250 kts | 222° |
| 2026-04-25 05:26 | 35.01948 | -120.62759 | 6131 ft | 250 kts | 222° |
| 2026-04-25 05:26 | 35.00618 | -120.64113 | 5799 ft | 246 kts | 222° |
| 2026-04-25 05:26 | 34.99313 | -120.65429 | 5468 ft | 240 kts | 222° |
| 2026-04-25 05:27 | 34.98049 | -120.66725 | 5164 ft | 235 kts | 223° |
| 2026-04-25 05:27 | 34.96807 | -120.68010 | 4867 ft | 234 kts | 223° |
| 2026-04-25 05:27 | 34.95576 | -120.69250 | 4576 ft | 226 kts | 223° |
| 2026-04-25 05:27 | 34.94384 | -120.70454 | 4275 ft | 226 kts | 223° |
| 2026-04-25 05:28 | 34.93183 | -120.71716 | 3970 ft | 223 kts | 225° |
| 2026-04-25 05:28 | 34.91963 | -120.72846 | 3591 ft | 221 kts | 220° |
| 2026-04-25 05:28 | 34.90473 | -120.73242 | 3041 ft | 227 kts | 192° |
| 2026-04-25 05:28 | 34.88954 | -120.72643 | 2647 ft | 231 kts | 161° |
| 2026-04-25 05:29 | 34.87807 | -120.71363 | 2586 ft | 220 kts | 139° |
| 2026-04-25 05:29 | 34.86517 | -120.70306 | 2310 ft | 227 kts | 149° |
| 2026-04-25 05:29 | 34.85258 | -120.69394 | 2054 ft | 199 kts | 149° |
| 2026-04-25 05:29 | 34.84142 | -120.68438 | 1848 ft | 198 kts | 147° |
| 2026-04-25 05:30 | 34.82880 | -120.67642 | 1710 ft | 208 kts | 153° |
| 2026-04-25 05:30 | 34.81754 | -120.66636 | 1494 ft | 188 kts | 145° |
| 2026-04-25 05:30 | 34.80753 | -120.65754 | 1337 ft | 171 kts | 144° |
| 2026-04-25 05:30 | 34.79786 | -120.64885 | 1210 ft | 175 kts | 143° |
| 2026-04-25 05:31 | 34.78878 | -120.63979 | 1211 ft | 162 kts | 141° |
| 2026-04-25 05:31 | 34.78017 | -120.63240 | 1105 ft | 138 kts | 143° |
| 2026-04-25 05:31 | 34.77301 | -120.62526 | 835 ft | 139 kts | 140° |
| 2026-04-25 05:31 | 34.76570 | -120.61710 | 813 ft | 143 kts | 137° |
| 2026-04-25 05:32 | 34.75893 | -120.60924 | 582 ft | 127 kts | 136° |
| 2026-04-25 05:32 | 34.75250 | -120.60178 | 435 ft | 128 kts | 136° |
| 2026-04-25 05:32 | 34.75017 | -120.59906 | 0 ft | 115 kts | 0° |
| 2026-04-25 05:32 | 34.78333 | -120.29588 | 6460 ft | 267 kts | 63° |
| 2026-04-25 05:33 | 34.62161 | -120.73013 | 6470 ft | 4050 kts | 63° |
| 2026-04-25 05:33 | 34.73856 | -120.80322 | 6543 ft | 254 kts | 63° |
| 2026-04-25 05:33 | 34.74708 | -120.78679 | 5341 ft | 215 kts | 54° |
| 2026-04-25 05:33 | 34.75367 | -120.77794 | 4438 ft | 208 kts | 48° |
| 2026-04-25 05:34 | 34.75777 | -120.76406 | 3556 ft | 13 kts | 66° |
| 2026-04-25 05:34 | 34.81089 | -120.61438 | 3556 ft | 240 kts | 66° |
| 2026-04-25 05:34 | 34.81276 | -120.60859 | 3100 ft | 177 kts | 64° |
| 2026-04-25 05:34 | 34.81974 | -120.59783 | 1807 ft | 155 kts | 38° |
| 2026-04-25 05:35 | 34.83080 | -120.59932 | 369 ft | 167 kts | 346° |
| 2026-04-25 05:35 | 34.83936 | -120.60847 | 455 ft | 159 kts | 321° |
| 2026-04-25 05:35 | 34.84486 | -120.61827 | 636 ft | 121 kts | 308° |
| 2026-04-25 05:35 | 34.84639 | -120.62855 | 412 ft | 138 kts | 285° |
| 2026-04-25 05:36 | 34.84465 | -120.64082 | 680 ft | 155 kts | 265° |
| 2026-04-25 05:36 | 34.83755 | -120.65211 | 602 ft | 184 kts | 233° |
| 2026-04-25 05:36 | 34.82632 | -120.65954 | 848 ft | 176 kts | 212° |
| 2026-04-25 05:36 | 34.81616 | -120.66384 | 777 ft | 140 kts | 202° |
| 2026-04-25 05:37 | 34.80685 | -120.66457 | 547 ft | 136 kts | 183° |
| 2026-04-25 05:37 | 34.79802 | -120.65952 | 631 ft | 146 kts | 159° |
| 2026-04-25 05:37 | 34.79013 | -120.65172 | 858 ft | 139 kts | 144° |
| 2026-04-25 05:37 | 34.78408 | -120.64352 | 886 ft | 126 kts | 134° |
| 2026-04-25 05:38 | 34.77866 | -120.63474 | 922 ft | 133 kts | 128° |
| 2026-04-25 05:38 | 34.77286 | -120.62608 | 1012 ft | 133 kts | 129° |
| 2026-04-25 05:38 | 34.76637 | -120.61827 | 888 ft | 130 kts | 133° |
| 2026-04-25 05:38 | 34.75993 | -120.61038 | 658 ft | 129 kts | 134° |
| 2026-04-25 05:39 | 34.75359 | -120.60299 | 450 ft | 126 kts | 135° |
| 2026-04-25 05:39 | 34.74778 | -120.59622 | 386 ft | 104 kts | 136° |
| 2026-04-25 05:39 | 34.74198 | -120.58960 | 386 ft | 132 kts | 137° |
| 2026-04-25 05:39 | 34.73428 | -120.58098 | 483 ft | 167 kts | 136° |
| 2026-04-25 05:40 | 34.72485 | -120.57090 | 942 ft | 195 kts | 138° |
| 2026-04-25 05:40 | 34.71384 | -120.55972 | 1300 ft | 212 kts | 139° |
| 2026-04-25 05:40 | 34.70397 | -120.54749 | 1627 ft | 192 kts | 135° |
| 2026-04-25 05:40 | 34.69433 | -120.53676 | 2004 ft | 190 kts | 136° |
| 2026-04-25 05:41 | 34.68703 | -120.52215 | 2126 ft | 221 kts | 115° |
| 2026-04-25 05:41 | 34.68691 | -120.50325 | 2392 ft | 225 kts | 84° |
| 2026-04-25 05:41 | 34.69322 | -120.48733 | 2974 ft | 191 kts | 60° |
| 2026-04-25 05:41 | 34.69706 | -120.47178 | 3660 ft | 196 kts | 69° |
| 2026-04-25 05:42 | 34.70024 | -120.45572 | 4440 ft | 198 kts | 71° |
| 2026-04-25 05:42 | 34.70620 | -120.44006 | 4858 ft | 216 kts | 60° |
| 2026-04-25 05:42 | 34.71832 | -120.42830 | 4900 ft | 225 kts | 30° |
| 2026-04-25 05:42 | 34.73274 | -120.42578 | 4916 ft | 199 kts | 360° |
| 2026-04-25 05:43 | 34.74464 | -120.43296 | 4817 ft | 195 kts | 328° |
| 2026-04-25 05:43 | 34.75226 | -120.44691 | 5064 ft | 199 kts | 303° |
| 2026-04-25 05:43 | 34.76200 | -120.46036 | 4924 ft | 219 kts | 314° |
| 2026-04-25 05:43 | 34.77279 | -120.47110 | 4973 ft | 189 kts | 317° |
| 2026-04-25 05:44 | 34.78058 | -120.48344 | 5069 ft | 182 kts | 309° |
| 2026-04-25 05:44 | 34.79032 | -120.49499 | 5005 ft | 209 kts | 314° |
| 2026-04-25 05:44 | 34.80058 | -120.50783 | 4982 ft | 207 kts | 313° |
| 2026-04-25 05:44 | 34.81013 | -120.52007 | 4977 ft | 192 kts | 313° |
| 2026-04-25 05:45 | 34.81939 | -120.53170 | 5046 ft | 195 kts | 313° |
| 2026-04-25 05:45 | 34.82912 | -120.54405 | 4982 ft | 212 kts | 313° |
| 2026-04-25 05:45 | 34.83904 | -120.55670 | 4982 ft | 197 kts | 313° |
| 2026-04-25 05:45 | 34.84831 | -120.56848 | 5008 ft | 192 kts | 313° |
| 2026-04-25 05:46 | 34.85784 | -120.58050 | 5018 ft | 206 kts | 313° |
| 2026-04-25 05:46 | 34.86801 | -120.59336 | 4976 ft | 208 kts | 313° |
| 2026-04-25 05:46 | 34.87757 | -120.60544 | 4989 ft | 191 kts | 313° |
| 2026-04-25 05:46 | 34.88680 | -120.61719 | 5021 ft | 196 kts | 313° |
| 2026-04-25 05:47 | 34.89671 | -120.62970 | 4988 ft | 211 kts | 313° |
| 2026-04-25 05:47 | 34.90669 | -120.64229 | 4984 ft | 199 kts | 313° |
| 2026-04-25 05:47 | 34.91602 | -120.65411 | 5004 ft | 192 kts | 313° |
| 2026-04-25 05:47 | 34.92498 | -120.66696 | 4802 ft | 214 kts | 308° |
| 2026-04-25 05:48 | 34.92874 | -120.68485 | 4195 ft | 214 kts | 279° |
| 2026-04-25 05:48 | 34.92401 | -120.70120 | 3783 ft | 205 kts | 250° |
| 2026-04-25 05:48 | 34.91251 | -120.71203 | 3353 ft | 221 kts | 219° |
| 2026-04-25 05:48 | 34.89704 | -120.71461 | 3001 ft | 231 kts | 188° |
| 2026-04-25 05:49 | 34.88217 | -120.70772 | 2636 ft | 230 kts | 158° |
| 2026-04-25 05:49 | 34.87004 | -120.69650 | 2631 ft | 212 kts | 146° |
| 2026-04-25 05:49 | 34.85610 | -120.68940 | 2336 ft | 218 kts | 159° |
| 2026-04-25 05:49 | 34.84287 | -120.68132 | 2051 ft | 206 kts | 155° |
| 2026-04-25 05:50 | 34.83060 | -120.67341 | 1782 ft | 196 kts | 154° |
| 2026-04-25 05:50 | 34.81895 | -120.66495 | 1509 ft | 194 kts | 150° |
| 2026-04-25 05:50 | 34.80857 | -120.65623 | 1336 ft | 168 kts | 146° |
| 2026-04-25 05:50 | 34.79908 | -120.64828 | 1217 ft | 166 kts | 145° |
| 2026-04-25 05:51 | 34.78940 | -120.63943 | 1048 ft | 181 kts | 143° |
| 2026-04-25 05:51 | 34.77946 | -120.63077 | 1038 ft | 168 kts | 144° |
| 2026-04-25 05:51 | 34.77075 | -120.62252 | 869 ft | 153 kts | 141° |
| 2026-04-25 05:51 | 34.76330 | -120.61406 | 676 ft | 143 kts | 137° |
| 2026-04-25 05:52 | 34.75621 | -120.60606 | 515 ft | 133 kts | 136° |
| 2026-04-25 05:52 | 34.74961 | -120.59849 | 388 ft | 126 kts | 136° |
| 2026-04-25 05:52 | 34.74838 | -120.59707 | 388 ft | 123 kts | 136° |
| 2026-04-25 05:53 | 34.74587 | -120.59417 | 386 ft | 105 kts | 136° |
| 2026-04-25 05:53 | 34.74023 | -120.58770 | 386 ft | 127 kts | 136° |
| 2026-04-25 05:53 | 34.73301 | -120.57943 | 557 ft | 152 kts | 136° |
| 2026-04-25 05:53 | 34.72491 | -120.57021 | 1058 ft | 171 kts | 136° |
| 2026-04-25 05:54 | 34.71556 | -120.55961 | 1518 ft | 196 kts | 136° |
| 2026-04-25 05:54 | 34.70530 | -120.54779 | 1908 ft | 205 kts | 136° |
| 2026-04-25 05:54 | 34.69116 | -120.51760 | 2427 ft | 226 kts | 100° |
| 2026-04-25 05:55 | 34.69483 | -120.49937 | 2835 ft | 218 kts | 69° |
| 2026-04-25 05:55 | 34.70138 | -120.48373 | 3594 ft | 212 kts | 60° |
| 2026-04-25 05:55 | 34.70486 | -120.46557 | 4146 ft | 226 kts | 72° |
| 2026-04-25 05:55 | 34.70976 | -120.44730 | 4635 ft | 224 kts | 68° |
| 2026-04-25 05:56 | 34.71466 | -120.42981 | 4999 ft | 220 kts | 68° |
| 2026-04-25 05:56 | 34.72058 | -120.41179 | 4875 ft | 237 kts | 62° |
| 2026-04-25 05:56 | 34.73213 | -120.39979 | 4868 ft | 202 kts | 31° |
| 2026-04-25 05:56 | 34.74549 | -120.39804 | 4750 ft | 197 kts | 359° |
| 2026-04-25 05:57 | 34.75799 | -120.40601 | 4704 ft | 213 kts | 327° |
| 2026-04-25 05:57 | 34.76607 | -120.41986 | 5090 ft | 190 kts | 305° |
| 2026-04-25 05:57 | 34.77561 | -120.43218 | 4958 ft | 214 kts | 314° |
| 2026-04-25 05:57 | 34.78614 | -120.44445 | 5015 ft | 203 kts | 315° |
| 2026-04-25 05:58 | 34.79542 | -120.45667 | 4980 ft | 192 kts | 313° |
| 2026-04-25 05:58 | 34.80471 | -120.46837 | 5031 ft | 197 kts | 313° |
| 2026-04-25 05:58 | 34.81472 | -120.48094 | 4984 ft | 213 kts | 313° |
| 2026-04-25 05:58 | 34.82461 | -120.49354 | 4980 ft | 196 kts | 313° |
| 2026-04-25 05:59 | 34.83384 | -120.50524 | 5012 ft | 190 kts | 313° |
| 2026-04-25 05:59 | 34.84336 | -120.51722 | 5013 ft | 206 kts | 313° |
| 2026-04-25 05:59 | 34.85346 | -120.53006 | 4980 ft | 207 kts | 313° |
| 2026-04-25 05:59 | 34.86298 | -120.54215 | 4974 ft | 191 kts | 313° |
| 2026-04-25 06:00 | 34.87220 | -120.55378 | 5029 ft | 194 kts | 313° |
| 2026-04-25 06:00 | 34.88202 | -120.56614 | 4993 ft | 212 kts | 313° |
| 2026-04-25 06:00 | 34.89205 | -120.57892 | 4989 ft | 198 kts | 313° |
| 2026-04-25 06:00 | 34.90135 | -120.59066 | 5000 ft | 191 kts | 313° |
| 2026-04-25 06:01 | 34.91080 | -120.60256 | 5016 ft | 203 kts | 313° |
| 2026-04-25 06:01 | 34.92092 | -120.61537 | 4973 ft | 210 kts | 313° |
| 2026-04-25 06:01 | 34.93059 | -120.62760 | 4977 ft | 192 kts | 313° |
| 2026-04-25 06:01 | 34.93981 | -120.63927 | 5019 ft | 194 kts | 313° |
| 2026-04-25 06:02 | 34.94880 | -120.65222 | 4782 ft | 218 kts | 308° |
| 2026-04-25 06:02 | 34.95281 | -120.67078 | 4235 ft | 227 kts | 281° |
| 2026-04-25 06:02 | 34.94863 | -120.68818 | 3820 ft | 210 kts | 252° |
| 2026-04-25 06:02 | 34.93783 | -120.70031 | 3615 ft | 212 kts | 226° |
| 2026-04-25 06:03 | 34.92708 | -120.71295 | 3459 ft | 227 kts | 230° |
| 2026-04-25 06:03 | 34.91558 | -120.72570 | 3002 ft | 222 kts | 221° |
| 2026-04-25 06:03 | 34.90086 | -120.72908 | 2512 ft | 217 kts | 191° |
| 2026-04-25 06:03 | 34.88647 | -120.72267 | 2077 ft | 228 kts | 159° |
| 2026-04-25 06:04 | 34.87501 | -120.70977 | 2065 ft | 214 kts | 139° |
| 2026-04-25 06:04 | 34.86257 | -120.70060 | 2058 ft | 207 kts | 150° |
| 2026-04-25 06:04 | 34.84993 | -120.69152 | 2029 ft | 219 kts | 150° |
| 2026-04-25 06:04 | 34.83728 | -120.68153 | 1743 ft | 205 kts | 149° |
| 2026-04-25 06:05 | 34.82577 | -120.67362 | 1608 ft | 181 kts | 150° |
| 2026-04-25 06:05 | 34.81586 | -120.66476 | 1479 ft | 176 kts | 146° |
| 2026-04-25 06:05 | 34.80576 | -120.65590 | 1329 ft | 179 kts | 144° |
| 2026-04-25 06:05 | 34.79608 | -120.64678 | 1135 ft | 172 kts | 142° |
| 2026-04-25 06:06 | 34.78680 | -120.63803 | 1072 ft | 161 kts | 142° |
| 2026-04-25 06:06 | 34.77794 | -120.63031 | 1237 ft | 153 kts | 143° |
| 2026-04-25 06:06 | 34.77021 | -120.62214 | 1053 ft | 143 kts | 139° |
| 2026-04-25 06:06 | 34.76322 | -120.61416 | 801 ft | 132 kts | 137° |
| 2026-04-25 06:07 | 34.75979 | -120.61026 | 652 ft | 129 kts | 136° |
| 2026-04-25 06:08 | 34.75388 | -120.60342 | 470 ft | 127 kts | 136° |
| 2026-04-25 06:08 | 34.74761 | -120.59614 | 387 ft | 118 kts | 136° |
| 2026-04-25 06:08 | 34.74216 | -120.58979 | 386 ft | 115 kts | 136° |
| 2026-04-25 06:09 | 34.73516 | -120.58173 | 407 ft | 159 kts | 136° |
| 2026-04-25 06:09 | 34.72644 | -120.57175 | 840 ft | 191 kts | 136° |
| 2026-04-25 06:09 | 34.71606 | -120.55985 | 1231 ft | 212 kts | 136° |
| 2026-04-25 06:09 | 34.70579 | -120.54809 | 1639 ft | 192 kts | 136° |
| 2026-04-25 06:10 | 34.69694 | -120.53673 | 2033 ft | 188 kts | 130° |
| 2026-04-25 06:10 | 34.69327 | -120.52040 | 2188 ft | 214 kts | 98° |
| 2026-04-25 06:10 | 34.69749 | -120.50288 | 2643 ft | 216 kts | 67° |
| 2026-04-25 06:10 | 34.70364 | -120.48695 | 3447 ft | 214 kts | 62° |
| 2026-04-25 06:11 | 34.70719 | -120.46866 | 3996 ft | 228 kts | 71° |
| 2026-04-25 06:11 | 34.71212 | -120.45046 | 4471 ft | 221 kts | 68° |
| 2026-04-25 06:11 | 34.71679 | -120.43328 | 4931 ft | 211 kts | 68° |
| 2026-04-25 06:11 | 34.72165 | -120.41520 | 5000 ft | 243 kts | 69° |
| 2026-04-25 06:12 | 34.73010 | -120.39806 | 4822 ft | 218 kts | 48° |
| 2026-04-25 06:12 | 34.74234 | -120.39100 | 4688 ft | 187 kts | 17° |
| 2026-04-25 06:12 | 34.75524 | -120.39371 | 4395 ft | 198 kts | 343° |
| 2026-04-25 06:12 | 34.76560 | -120.40533 | 4289 ft | 204 kts | 313° |
| 2026-04-25 06:13 | 34.77308 | -120.41805 | 4813 ft | 174 kts | 308° |
| 2026-04-25 06:13 | 34.78222 | -120.42794 | 5153 ft | 188 kts | 316° |
| 2026-04-25 06:13 | 34.79244 | -120.44092 | 4954 ft | 226 kts | 313° |
| 2026-04-25 06:14 | 34.81094 | -120.46435 | 4986 ft | 173 kts | 313° |
| 2026-04-25 06:14 | 34.81944 | -120.47512 | 5051 ft | 184 kts | 313° |
| 2026-04-25 06:14 | 34.82907 | -120.48716 | 4998 ft | 213 kts | 313° |
| 2026-04-25 06:14 | 34.83941 | -120.50010 | 4983 ft | 205 kts | 313° |
| 2026-04-25 06:15 | 34.84892 | -120.51200 | 4995 ft | 191 kts | 313° |
| 2026-04-25 06:15 | 34.85829 | -120.52376 | 5020 ft | 200 kts | 313° |
| 2026-04-25 06:15 | 34.86845 | -120.53650 | 4999 ft | 216 kts | 313° |
| 2026-04-25 06:15 | 34.87868 | -120.54934 | 4976 ft | 202 kts | 313° |
| 2026-04-25 06:16 | 34.88819 | -120.56123 | 5016 ft | 195 kts | 313° |
| 2026-04-25 06:16 | 34.89792 | -120.57347 | 5006 ft | 210 kts | 313° |
| 2026-04-25 06:16 | 34.90827 | -120.58642 | 4988 ft | 212 kts | 313° |
| 2026-04-25 06:16 | 34.91814 | -120.59874 | 4989 ft | 196 kts | 313° |
| 2026-04-25 06:17 | 34.92769 | -120.61068 | 5019 ft | 201 kts | 313° |
| 2026-04-25 06:17 | 34.93791 | -120.62350 | 4997 ft | 216 kts | 313° |
| 2026-04-25 06:17 | 34.94813 | -120.63631 | 4981 ft | 201 kts | 313° |
| 2026-04-25 06:17 | 34.95767 | -120.64818 | 5009 ft | 195 kts | 313° |
| 2026-04-25 06:18 | 34.96747 | -120.66040 | 5013 ft | 211 kts | 313° |
| 2026-04-25 06:18 | 34.97680 | -120.67541 | 4595 ft | 238 kts | 302° |
| 2026-04-25 06:18 | 34.97950 | -120.69471 | 4124 ft | 223 kts | 275° |
| 2026-04-25 06:18 | 34.97404 | -120.71157 | 3727 ft | 216 kts | 246° |
| 2026-04-25 06:19 | 34.96187 | -120.72278 | 3428 ft | 226 kts | 216° |
| 2026-04-25 06:19 | 34.94663 | -120.72686 | 3446 ft | 229 kts | 195° |
| 2026-04-25 06:19 | 34.93154 | -120.73406 | 3137 ft | 231 kts | 206° |
| 2026-04-25 06:19 | 34.91740 | -120.74110 | 2841 ft | 216 kts | 204° |
| 2026-04-25 06:20 | 34.90249 | -120.73950 | 2467 ft | 219 kts | 173° |
| 2026-04-25 06:20 | 34.88992 | -120.72850 | 2327 ft | 225 kts | 143° |
| 2026-04-25 06:20 | 34.87864 | -120.71595 | 2352 ft | 224 kts | 140° |
| 2026-04-25 06:20 | 34.86540 | -120.70660 | 2234 ft | 213 kts | 150° |
| 2026-04-25 06:21 | 34.85376 | -120.69624 | 2020 ft | 201 kts | 145° |
| 2026-04-25 06:21 | 34.84232 | -120.68686 | 1859 ft | 194 kts | 147° |
| 2026-04-25 06:21 | 34.83061 | -120.67919 | 1719 ft | 193 kts | 152° |
| 2026-04-25 06:21 | 34.81953 | -120.66915 | 1545 ft | 199 kts | 144° |
| 2026-04-25 06:22 | 34.80895 | -120.65962 | 1433 ft | 177 kts | 144° |
| 2026-04-25 06:22 | 34.80250 | -120.65374 | 1510 ft | 176 kts | 143° |
| 2026-04-25 06:22 | 34.79228 | -120.64491 | 1529 ft | 173 kts | 144° |
| 2026-04-25 06:22 | 34.78303 | -120.63680 | 1404 ft | 154 kts | 143° |
| 2026-04-25 06:23 | 34.77577 | -120.62865 | 1162 ft | 135 kts | 138° |
| 2026-04-25 06:23 | 34.76889 | -120.62115 | 909 ft | 135 kts | 136° |
| 2026-04-25 06:23 | 34.76189 | -120.61286 | 797 ft | 140 kts | 135° |
| 2026-04-25 06:23 | 34.75528 | -120.60506 | 482 ft | 129 kts | 135° |
| 2026-04-25 06:24 | 34.74902 | -120.59781 | 388 ft | 115 kts | 135° |
| 2026-04-25 06:24 | 34.74526 | -120.59332 | 386 ft | 88 kts | 135° |
| 2026-04-25 06:24 | 34.74056 | -120.58790 | 386 ft | 115 kts | 137° |
| 2026-04-25 06:24 | 34.73341 | -120.57991 | 479 ft | 162 kts | 136° |
| 2026-04-25 06:25 | 34.72442 | -120.56903 | 858 ft | 200 kts | 134° |
| 2026-04-25 06:25 | 34.71488 | -120.55609 | 1240 ft | 204 kts | 130° |
| 2026-04-25 06:25 | 34.70543 | -120.54330 | 1730 ft | 203 kts | 131° |
| 2026-04-25 06:25 | 34.69564 | -120.53034 | 2245 ft | 219 kts | 131° |
| 2026-04-25 06:26 | 34.68490 | -120.51559 | 2793 ft | 246 kts | 131° |
| 2026-04-25 06:26 | 34.67291 | -120.49957 | 3284 ft | 263 kts | 132° |
| 2026-04-25 06:26 | 34.66051 | -120.48284 | 3780 ft | 269 kts | 132° |
| 2026-04-25 06:26 | 34.64778 | -120.46600 | 4279 ft | 274 kts | 133° |
| 2026-04-25 06:27 | 34.63474 | -120.44895 | 4777 ft | 276 kts | 133° |
| 2026-04-25 06:27 | 34.62170 | -120.43205 | 5274 ft | 273 kts | 134° |
| 2026-04-25 06:27 | 34.60975 | -120.41371 | 5642 ft | 285 kts | 124° |
| 2026-04-25 06:27 | 34.60439 | -120.39121 | 6173 ft | 276 kts | 103° |
| 2026-04-25 06:28 | 34.59986 | -120.36862 | 6726 ft | 278 kts | 104° |
| 2026-04-25 06:28 | 34.59390 | -120.34574 | 7251 ft | 290 kts | 107° |
| 2026-04-25 06:28 | 34.58831 | -120.32239 | 7739 ft | 282 kts | 106° |
| 2026-04-25 06:28 | 34.58285 | -120.29994 | 8241 ft | 277 kts | 106° |
| 2026-04-25 06:29 | 34.57727 | -120.27694 | 8760 ft | 292 kts | 106° |
| 2026-04-25 06:29 | 34.57292 | -120.25235 | 9144 ft | 302 kts | 98° |
| 2026-04-25 06:29 | 34.57649 | -120.22830 | 9519 ft | 282 kts | 73° |
| 2026-04-25 06:29 | 34.58770 | -120.20944 | 9973 ft | 277 kts | 48° |
| 2026-04-25 06:30 | 34.60243 | -120.19423 | 10680 ft | 284 kts | 39° |
| 2026-04-25 06:30 | 34.61673 | -120.17664 | 11155 ft | 301 kts | 44° |
| 2026-04-25 06:30 | 34.63193 | -120.15798 | 11459 ft | 320 kts | 43° |
| 2026-04-25 06:30 | 34.64814 | -120.13843 | 11777 ft | 335 kts | 43° |
| 2026-04-25 06:31 | 34.66482 | -120.11805 | 12108 ft | 346 kts | 43° |
| 2026-04-25 06:31 | 34.68214 | -120.09708 | 12434 ft | 356 kts | 43° |
| 2026-04-25 06:31 | 34.69970 | -120.07576 | 12755 ft | 367 kts | 43° |
| 2026-04-25 06:31 | 34.71789 | -120.05345 | 13072 ft | 375 kts | 43° |
| 2026-04-25 06:32 | 34.73634 | -120.03103 | 13369 ft | 371 kts | 43° |
| 2026-04-25 06:32 | 34.75432 | -120.00878 | 13671 ft | 369 kts | 43° |
| 2026-04-25 06:32 | 34.77265 | -119.98648 | 13974 ft | 378 kts | 42° |
| 2026-04-25 06:32 | 34.79172 | -119.96379 | 14275 ft | 388 kts | 42° |
| 2026-04-25 06:33 | 34.81090 | -119.94070 | 14577 ft | 384 kts | 42° |
| 2026-04-25 06:33 | 34.82947 | -119.91803 | 14868 ft | 374 kts | 42° |
| 2026-04-25 06:33 | 34.84802 | -119.89557 | 15174 ft | 380 kts | 42° |
| 2026-04-25 06:33 | 34.86697 | -119.87240 | 15457 ft | 391 kts | 42° |
| 2026-04-25 06:34 | 34.88638 | -119.84868 | 15733 ft | 400 kts | 42° |
| 2026-04-25 06:34 | 34.90586 | -119.82475 | 16000 ft | 391 kts | 42° |
| 2026-04-25 06:34 | 34.92468 | -119.80159 | 16279 ft | 382 kts | 42° |
| 2026-04-25 06:34 | 34.94348 | -119.77833 | 16557 ft | 389 kts | 42° |
| 2026-04-25 06:35 | 34.96272 | -119.75445 | 16835 ft | 399 kts | 42° |
| 2026-04-25 06:35 | 34.98244 | -119.73009 | 17111 ft | 407 kts | 42° |
| 2026-04-25 06:35 | 35.00223 | -119.70548 | 17383 ft | 404 kts | 42° |
| 2026-04-25 06:35 | 35.02157 | -119.68131 | 17656 ft | 395 kts | 42° |
| 2026-04-25 06:36 | 35.04109 | -119.65767 | 17934 ft | 398 kts | 40° |
| 2026-04-25 06:36 | 35.06070 | -119.63370 | 18208 ft | 406 kts | 41° |
| 2026-04-25 06:36 | 35.08123 | -119.60879 | 18466 ft | 415 kts | 41° |
| 2026-04-25 06:36 | 35.10177 | -119.58377 | 18715 ft | 417 kts | 41° |
| 2026-04-25 06:37 | 35.12180 | -119.55930 | 18959 ft | 409 kts | 41° |
| 2026-04-25 06:37 | 35.14181 | -119.53483 | 19211 ft | 407 kts | 41° |
| 2026-04-25 06:37 | 35.16218 | -119.50979 | 19466 ft | 414 kts | 41° |
| 2026-04-25 06:37 | 35.18269 | -119.48466 | 19719 ft | 421 kts | 41° |
| 2026-04-25 06:38 | 35.20351 | -119.45911 | 19971 ft | 428 kts | 41° |
| 2026-04-25 06:38 | 35.22426 | -119.43364 | 20215 ft | 426 kts | 41° |
| 2026-04-25 06:38 | 35.24494 | -119.40807 | 20463 ft | 419 kts | 41° |
| 2026-04-25 06:38 | 35.26536 | -119.38277 | 20716 ft | 419 kts | 41° |
| 2026-04-25 06:39 | 35.28597 | -119.35726 | 20967 ft | 425 kts | 41° |
| 2026-04-25 06:39 | 35.30690 | -119.33133 | 21218 ft | 431 kts | 41° |
| 2026-04-25 06:39 | 35.32800 | -119.30480 | 21469 ft | 438 kts | 41° |
| 2026-04-25 06:39 | 35.34900 | -119.27755 | 21719 ft | 442 kts | 42° |
| 2026-04-25 06:40 | 35.37029 | -119.25024 | 21867 ft | 443 kts | 42° |
| 2026-04-25 06:40 | 35.39153 | -119.22294 | 21881 ft | 441 kts | 42° |
| 2026-04-25 06:40 | 35.41252 | -119.19578 | 21882 ft | 437 kts | 42° |
| 2026-04-25 06:40 | 35.43332 | -119.16870 | 21882 ft | 436 kts | 42° |
| 2026-04-25 06:41 | 35.45379 | -119.14117 | 21882 ft | 439 kts | 43° |
| 2026-04-25 06:41 | 35.47593 | -119.11562 | 21835 ft | 433 kts | 34° |
| 2026-04-25 06:41 | 35.50239 | -119.09951 | 21856 ft | 418 kts | 17° |
| 2026-04-25 06:41 | 35.53043 | -119.09238 | 21901 ft | 411 kts | 4° |
| 2026-04-25 06:42 | 35.55882 | -119.08635 | 21888 ft | 416 kts | 4° |
| 2026-04-25 06:42 | 35.58735 | -119.08060 | 21881 ft | 415 kts | 3° |
| 2026-04-25 06:42 | 35.61574 | -119.07489 | 21878 ft | 410 kts | 3° |
| 2026-04-25 06:42 | 35.64372 | -119.06925 | 21878 ft | 407 kts | 3° |
| 2026-04-25 06:43 | 35.67185 | -119.06373 | 21876 ft | 410 kts | 3° |
| 2026-04-25 06:43 | 35.69992 | -119.05917 | 21874 ft | 415 kts | 1° |
| 2026-04-25 06:43 | 35.72850 | -119.05402 | 21873 ft | 414 kts | 2° |
| 2026-04-25 06:43 | 35.75682 | -119.04911 | 21873 ft | 409 kts | 2° |
| 2026-04-25 06:44 | 35.78483 | -119.04407 | 21884 ft | 407 kts | 2° |
| 2026-04-25 06:44 | 35.81299 | -119.03909 | 21887 ft | 411 kts | 2° |
| 2026-04-25 06:44 | 35.84144 | -119.03403 | 21886 ft | 415 kts | 2° |
| 2026-04-25 06:44 | 35.87002 | -119.02900 | 21888 ft | 414 kts | 2° |
| 2026-04-25 06:45 | 35.89824 | -119.02645 | 21840 ft | 398 kts | 354° |